Time;durP1;ratioP1;P1;durP2;ratioP2;P2;SDS_P1;SDS_P2;PMS_P1;PMS_P2;Temp;Humidity;BMP_temperature;BMP_pressure;BME280_temperature;BME280_humidity;BME280_pressure;Samples;Min_cycle;Max_cycle;Signal;HPM_P1;HPM_P2
2023/08/22 00:02:27;;;;;;;8.90;4.20;;;;;;;20.30;77.16;101113.80;105273;1260;99113;-78
2023/08/22 00:05:13;;;;;;;6.10;4.50;;;;;;;20.28;77.09;101117.20;105168;1259;98093;-78
2023/08/22 00:08:05;;;;;;;8.80;4.90;;;;;;;20.26;77.09;101116.81;105104;1261;97873;-79
2023/08/22 00:10:50;;;;;;;7.30;4.90;;;;;;;20.23;77.22;101113.56;106025;1259;98487;-80
2023/08/22 00:13:36;;;;;;;11.00;4.90;;;;;;;20.17;77.10;101113.90;106206;1258;102046;-79
2023/08/22 00:16:23;;;;;;;5.40;4.50;;;;;;;20.14;77.37;101110.61;105647;1262;99163;-79
2023/08/22 00:19:08;;;;;;;9.90;4.70;;;;;;;20.12;77.35;101114.33;105564;1261;99047;-80
2023/08/22 00:21:54;;;;;;;11.20;4.40;;;;;;;20.09;77.52;101115.39;105547;1258;97962;-79
2023/08/22 00:24:40;;;;;;;8.70;4.40;;;;;;;20.06;77.54;101114.06;105666;1258;98513;-79
2023/08/22 00:27:27;;;;;;;7.60;4.60;;;;;;;20.03;77.68;101114.94;105666;1258;101391;-80
2023/08/22 00:30:13;;;;;;;9.20;4.40;;;;;;;20.01;77.83;101110.38;106076;1261;99100;-79
2023/08/22 00:32:58;;;;;;;8.70;5.10;;;;;;;19.98;77.88;101109.17;105604;1258;97998;-79
2023/08/22 00:35:44;;;;;;;9.70;5.00;;;;;;;19.96;78.16;101108.19;105776;1257;98045;-79
2023/08/22 00:38:29;;;;;;;8.60;4.70;;;;;;;19.95;78.15;101107.72;105706;1258;99760;-80
2023/08/22 00:41:16;;;;;;;8.30;4.50;;;;;;;19.91;78.07;101104.52;105731;1260;101376;-79
2023/08/22 00:44:02;;;;;;;9.20;5.10;;;;;;;19.89;78.30;101105.55;105482;1264;144261;-79
2023/08/22 00:46:47;;;;;;;9.70;5.60;;;;;;;19.88;78.39;101106.28;105649;1258;98043;-78
2023/08/22 00:49:34;;;;;;;9.50;5.80;;;;;;;19.85;78.31;101106.38;105540;1264;98877;-78
2023/08/22 00:52:19;;;;;;;7.60;5.30;;;;;;;19.82;78.32;101105.84;105563;1258;97972;-79
2023/08/22 00:55:05;;;;;;;6.80;4.90;;;;;;;19.79;78.47;101107.40;105721;1261;102722;-79
2023/08/22 00:57:51;;;;;;;8.40;5.20;;;;;;;19.75;78.64;101107.18;105626;1260;99511;-78
2023/08/22 01:00:37;;;;;;;8.00;5.10;;;;;;;19.68;78.34;101114.52;105530;1258;98897;-79
2023/08/22 01:03:23;;;;;;;9.50;5.10;;;;;;;19.63;78.66;101113.69;105637;1263;97971;-79
2023/08/22 01:06:32;;;;;;;7.60;4.40;;;;;;;19.59;78.75;101116.67;105575;1262;98868;-79
2023/08/22 01:09:32;;;;;;;10.10;4.30;;;;;;;19.51;78.87;101122.91;105593;1258;101413;-79
2023/08/22 01:13:04;;;;;;;13.80;5.30;;;;;;;19.44;79.19;101123.33;105571;1262;99071;-78
2023/08/22 01:15:50;;;;;;;6.90;4.10;;;;;;;19.35;79.88;101131.25;105521;1263;98055;-79
2023/08/22 01:18:39;;;;;;;7.80;4.30;;;;;;;19.29;80.23;101129.10;105605;1260;97979;-79
2023/08/22 01:21:25;;;;;;;6.20;4.60;;;;;;;19.24;80.06;101125.98;105699;1258;97975;-79
2023/08/22 01:24:12;;;;;;;7.70;4.70;;;;;;;19.21;79.98;101122.27;106153;1258;102085;-79
2023/08/22 01:26:58;;;;;;;6.30;4.00;;;;;;;19.20;79.88;101122.55;105693;1257;99132;-79
2023/08/22 01:29:53;;;;;;;7.70;3.70;;;;;;;19.18;80.05;101117.89;105500;1258;97965;-80
2023/08/22 01:32:43;;;;;;;7.40;4.80;;;;;;;19.14;80.12;101119.53;105539;1264;97939;-79
2023/08/22 01:35:31;;;;;;;7.10;4.60;;;;;;;19.11;80.06;101119.38;105526;1263;99746;-79
2023/08/22 01:38:18;;;;;;;7.30;4.60;;;;;;;19.05;80.00;101124.32;105650;1257;102368;-79
2023/08/22 01:41:05;;;;;;;4.50;4.10;;;;;;;19.02;80.15;101125.46;105659;1257;99409;-79
2023/08/22 01:43:51;;;;;;;12.70;4.80;;;;;;;18.96;80.11;101129.51;105517;1263;98043;-79
2023/08/22 01:46:36;;;;;;;7.60;4.60;;;;;;;18.89;80.42;101128.38;105675;1258;97968;-78
2023/08/22 01:49:22;;;;;;;8.40;4.60;;;;;;;18.85;80.75;101129.88;105561;1258;98023;-79
2023/08/22 01:52:07;;;;;;;6.30;4.30;;;;;;;18.82;80.83;101129.14;105604;1257;101403;-79
2023/08/22 01:54:53;;;;;;;6.30;4.90;;;;;;;18.80;81.19;101131.75;105688;1258;99142;-80
2023/08/22 01:57:39;;;;;;;7.80;4.70;;;;;;;18.77;81.31;101132.58;105603;1263;99097;-79
2023/08/22 02:00:24;;;;;;;6.80;4.10;;;;;;;18.72;81.60;101132.20;105634;1264;98083;-79
2023/08/22 02:03:10;;;;;;;6.50;4.00;;;;;;;18.64;81.50;101135.45;105603;1261;98499;-79
2023/08/22 02:05:55;;;;;;;8.60;4.70;;;;;;;18.54;81.33;101135.70;105643;1258;102300;-80
2023/08/22 02:08:42;;;;;;;6.50;4.60;;;;;;;18.44;81.83;101136.41;105750;1258;99128;-78
2023/08/22 02:11:27;;;;;;;7.30;4.60;;;;;;;18.35;81.99;101136.49;105667;1257;97984;-79
2023/08/22 02:14:13;;;;;;;6.30;4.10;;;;;;;18.27;82.14;101137.66;105513;1263;97952;-80
2023/08/22 02:16:58;;;;;;;7.70;4.90;;;;;;;18.21;82.67;101142.89;105547;1258;97984;-79
2023/08/22 02:19:44;;;;;;;8.10;4.90;;;;;;;18.17;82.87;101139.18;105724;1261;103332;-79
2023/08/22 02:22:29;;;;;;;8.40;4.80;;;;;;;18.13;83.08;101137.05;105639;1261;100108;-79
2023/08/22 02:25:15;;;;;;;12.90;4.90;;;;;;;18.11;83.53;101137.73;105393;1261;99015;-77
2023/08/22 02:28:02;;;;;;;8.80;4.90;;;;;;;18.10;83.88;101132.66;105218;1258;97994;-78
2023/08/22 02:30:54;;;;;;;8.50;4.90;;;;;;;18.10;84.00;101127.98;105535;1264;98489;-78
2023/08/22 02:33:40;;;;;;;;;;;;;;;18.10;84.09;101128.70;106503;1258;102010;-79
2023/08/22 02:36:25;;;;;;;9.20;4.30;;;;;;;18.05;84.06;101131.58;105587;1261;99157;-78
2023/08/22 02:39:10;;;;;;;9.10;5.00;;;;;;;18.02;84.18;101136.73;105625;1260;97758;-79
2023/08/22 02:41:56;;;;;;;8.50;5.00;;;;;;;18.01;84.13;101144.45;105646;1257;97894;-79
2023/08/22 02:44:42;;;;;;;8.80;5.20;;;;;;;17.99;84.14;101145.36;105582;1258;98407;-79
2023/08/22 02:47:28;;;;;;;7.20;4.60;;;;;;;17.97;84.22;101146.37;105570;1258;109902;-80
2023/08/22 02:50:13;;;;;;;8.00;5.20;;;;;;;17.94;84.53;101139.47;107222;1261;100350;-79
2023/08/22 02:52:59;;;;;;;7.00;4.50;;;;;;;17.92;84.23;101137.92;105591;1260;98966;-78
2023/08/22 02:55:48;;;;;;;6.90;4.80;;;;;;;17.90;84.62;101134.77;105683;1261;97918;-79
2023/08/22 02:58:34;;;;;;;6.40;4.40;;;;;;;17.89;85.01;101128.89;105628;1261;97991;-79
2023/08/22 03:01:20;;;;;;;7.30;4.70;;;;;;;17.87;84.70;101126.86;105657;1258;101459;-79
2023/08/22 03:04:06;;;;;;;6.70;5.00;;;;;;;17.84;84.94;101127.75;105546;1261;99316;-79
2023/08/22 03:06:51;;;;;;;6.60;4.90;;;;;;;17.85;85.02;101124.63;105504;1264;98518;-79
2023/08/22 03:09:39;;;;;;;7.50;5.00;;;;;;;17.85;85.17;101124.25;105493;1258;97927;-78
2023/08/22 03:12:25;;;;;;;7.10;5.40;;;;;;;17.84;85.04;101123.73;105894;1261;97845;-79
2023/08/22 03:15:11;;;;;;;6.80;4.70;;;;;;;17.81;84.97;101116.66;105630;1261;102689;-78
2023/08/22 03:18:00;;;;;;;10.20;4.70;;;;;;;17.82;85.05;101114.35;105784;1258;99660;-79
2023/08/22 03:20:46;;;;;;;11.50;4.90;;;;;;;17.82;85.19;101112.34;105419;1263;99113;-79
2023/08/22 03:23:31;;;;;;;5.70;4.40;;;;;;;17.83;85.20;101106.34;105537;1258;97985;-80
2023/08/22 03:26:17;;;;;;;8.80;4.90;;;;;;;17.82;84.99;101109.85;105574;1263;98472;-79
2023/08/22 03:29:03;;;;;;;6.50;4.50;;;;;;;17.81;84.95;101109.33;105628;1257;101443;-79
2023/08/22 03:31:49;;;;;;;6.10;4.70;;;;;;;17.81;84.77;101109.87;105580;1262;99095;-79
2023/08/22 03:34:35;;;;;;;7.90;4.70;;;;;;;17.78;84.87;101109.88;105466;1261;97975;-79
2023/08/22 03:37:21;;;;;;;7.30;4.50;;;;;;;17.72;84.87;101109.67;105792;1258;97980;-79
2023/08/22 03:40:08;;;;;;;6.30;4.70;;;;;;;17.66;85.13;101107.93;106228;1258;98519;-78
2023/08/22 03:42:54;;;;;;;8.10;4.90;;;;;;;17.64;85.22;101110.63;105539;1262;102676;-78
2023/08/22 03:45:39;;;;;;;8.50;4.60;;;;;;;17.61;85.33;101112.69;105474;1258;99205;-80
2023/08/22 03:48:25;;;;;;;9.90;4.90;;;;;;;17.56;85.56;101112.10;105599;1261;98829;-79
2023/08/22 03:51:11;;;;;;;8.80;4.20;;;;;;;17.52;85.42;101114.00;105582;1261;98582;-82
2023/08/22 03:53:58;;;;;;;6.00;4.50;;;;;;;17.47;85.38;101117.39;105599;1262;98497;-79
2023/08/22 03:56:44;;;;;;;7.20;4.30;;;;;;;17.46;85.64;101115.22;105662;1261;101358;-79
2023/08/22 03:59:29;;;;;;;9.90;4.50;;;;;;;17.45;85.58;101117.20;105573;1258;100382;-78
2023/08/22 04:02:15;;;;;;;8.80;4.90;;;;;;;17.43;85.36;101115.28;105544;1261;97962;-80
2023/08/22 04:05:01;;;;;;;5.80;4.00;;;;;;;17.41;85.23;101114.68;105443;1258;97909;-78
2023/08/22 04:07:46;;;;;;;7.80;4.50;;;;;;;17.39;85.51;101111.23;105527;1263;98513;-79
2023/08/22 04:10:31;;;;;;;5.60;4.00;;;;;;;17.39;85.52;101114.69;105562;1261;101356;-79
2023/08/22 04:13:17;;;;;;;6.40;4.40;;;;;;;17.38;85.66;101116.40;106068;1261;99157;-79
2023/08/22 04:16:02;;;;;;;9.70;4.40;;;;;;;17.35;85.88;101120.54;106030;1258;99281;-80
2023/08/22 04:18:48;;;;;;;5.70;4.10;;;;;;;17.34;86.11;101113.75;105461;1258;97988;-79
2023/08/22 04:21:34;;;;;;;6.70;3.90;;;;;;;17.32;86.17;101112.95;105620;1259;97876;-79
2023/08/22 04:24:19;;;;;;;4.90;3.70;;;;;;;17.30;86.27;101113.16;105775;1258;102533;-80
2023/08/22 04:27:05;;;;;;;9.10;4.40;;;;;;;17.33;86.85;101110.60;105850;1261;100516;-80
2023/08/22 04:29:51;;;;;;;7.80;4.70;;;;;;;17.37;86.98;101111.25;105935;1261;98493;-80
2023/08/22 04:32:37;;;;;;;8.00;4.60;;;;;;;17.43;87.30;101113.08;106385;1258;97890;-79
2023/08/22 04:35:24;;;;;;;9.70;4.60;;;;;;;17.49;87.66;101118.39;106380;1258;98404;-80
2023/08/22 04:38:12;;;;;;;8.80;4.10;;;;;;;17.55;87.63;101120.33;106604;1257;101504;-78
2023/08/22 04:40:58;;;;;;;8.50;4.90;;;;;;;17.59;87.64;101116.37;105917;1264;99145;-80
2023/08/22 04:44:06;;;;;;;8.40;4.70;;;;;;;17.68;88.09;101123.47;106369;1261;97891;-80
2023/08/22 04:46:51;;;;;;;7.40;4.80;;;;;;;17.74;88.16;101124.34;106352;1258;97988;-81
2023/08/22 04:49:38;;;;;;;7.10;4.50;;;;;;;17.79;88.33;101122.27;105991;1262;97942;-80
2023/08/22 04:52:23;;;;;;;9.70;5.40;;;;;;;17.85;88.38;101127.34;105819;1260;101342;-80
2023/08/22 04:55:09;;;;;;;8.80;5.90;;;;;;;17.90;88.73;101130.02;106468;1261;99149;-80
2023/08/22 04:57:54;;;;;;;6.80;4.80;;;;;;;17.95;89.03;101128.34;106457;1258;98508;-80
2023/08/22 05:00:40;;;;;;;7.10;5.00;;;;;;;17.98;88.88;101126.96;106415;1258;97191;-79
2023/08/22 05:03:26;;;;;;;9.50;5.10;;;;;;;18.00;88.90;101126.04;106670;1258;97939;-80
2023/08/22 05:06:11;;;;;;;7.40;5.30;;;;;;;17.96;89.01;101126.70;106423;1258;101501;-81
2023/08/22 05:08:57;;;;;;;8.80;4.90;;;;;;;17.92;89.22;101125.48;106339;1258;99273;-80
2023/08/22 05:11:44;;;;;;;7.80;4.70;;;;;;;17.93;89.49;101129.02;106200;1258;98447;-80
2023/08/22 05:14:33;;;;;;;9.20;5.30;;;;;;;17.95;89.70;101133.00;106163;1263;98465;-80
2023/08/22 05:17:18;;;;;;;8.00;5.40;;;;;;;17.97;89.70;101132.83;106278;1258;97756;-80
2023/08/22 05:20:06;;;;;;;9.70;5.40;;;;;;;17.94;89.95;101130.89;105641;1263;102689;-80
2023/08/22 05:22:52;;;;;;;8.70;5.30;;;;;;;17.89;90.02;101126.68;105893;1258;99383;-80
2023/08/22 05:25:37;;;;;;;8.90;5.50;;;;;;;17.86;90.31;101133.77;105794;1258;97972;-80
2023/08/22 05:28:23;;;;;;;6.60;4.70;;;;;;;17.88;90.81;101139.48;106060;1258;99140;-80
2023/08/22 05:31:09;;;;;;;12.20;5.60;;;;;;;17.92;90.80;101143.73;106060;1263;97997;-78
2023/08/22 05:33:56;;;;;;;10.10;5.60;;;;;;;17.98;91.01;101143.33;106198;1258;102022;-79
2023/08/22 05:36:42;;;;;;;8.00;5.50;;;;;;;18.02;91.36;101141.98;105747;1262;100412;-79
2023/08/22 05:39:27;;;;;;;7.80;5.20;;;;;;;18.05;91.54;101144.34;105561;1258;97926;-79
2023/08/22 05:42:13;;;;;;;8.90;4.90;;;;;;;18.10;91.58;101146.59;105492;1258;98516;-78
2023/08/22 05:44:59;;;;;;;8.10;5.10;;;;;;;18.12;91.58;101143.39;105649;1257;98584;-79
2023/08/22 05:47:45;;;;;;;10.80;5.40;;;;;;;18.15;91.84;101149.64;105527;1258;101353;-79
2023/08/22 05:50:31;;;;;;;9.60;5.40;;;;;;;18.19;91.82;101154.05;105980;1258;100349;-79
2023/08/22 05:53:17;;;;;;;10.40;5.80;;;;;;;18.27;92.08;101156.10;106257;1261;98554;-79
2023/08/22 05:56:03;;;;;;;10.90;4.80;;;;;;;18.40;92.30;101156.52;106264;1258;97872;-80
2023/08/22 05:58:49;;;;;;;7.00;4.00;;;;;;;18.55;92.38;101154.81;106370;1258;98303;-79
2023/08/22 06:01:34;;;;;;;9.10;4.90;;;;;;;18.69;92.04;101155.45;106185;1259;103250;-80
2023/08/22 06:04:22;;;;;;;10.90;5.00;;;;;;;18.74;91.36;101154.75;106358;1263;99389;-80
2023/08/22 06:07:07;;;;;;;10.80;4.80;;;;;;;18.81;91.23;101156.09;106268;1258;99589;-80
2023/08/22 06:09:52;;;;;;;8.20;4.60;;;;;;;18.95;91.20;101152.00;106272;1260;97679;-80
2023/08/22 06:12:39;;;;;;;7.10;4.30;;;;;;;19.09;90.92;101152.41;106272;1258;98507;-80
2023/08/22 06:15:24;;;;;;;7.90;4.50;;;;;;;19.21;90.79;101150.98;105646;1264;102408;-80
2023/08/22 06:18:10;;;;;;;7.70;4.00;;;;;;;19.32;90.39;101149.02;105788;1261;99241;-80
2023/08/22 06:21:00;;;;;;;8.70;5.00;;;;;;;19.44;90.29;101143.88;105713;1260;97953;-80
2023/08/22 06:23:45;;;;;;;9.20;4.40;;;;;;;19.56;89.94;101149.67;105787;1258;98071;-79
2023/08/22 06:26:31;;;;;;;8.70;4.00;;;;;;;19.60;89.25;101150.56;105785;1259;99544;-79
2023/08/22 06:29:18;;;;;;;9.80;4.10;;;;;;;19.71;89.53;101149.69;105839;1261;101402;-79
2023/08/22 06:32:03;;;;;;;6.50;3.50;;;;;;;19.84;89.18;101149.65;105791;1258;99091;-79
2023/08/22 06:34:51;;;;;;;6.90;3.70;;;;;;;19.93;88.60;101153.02;105851;1261;98030;-80
2023/08/22 06:37:38;;;;;;;10.20;4.10;;;;;;;19.97;88.19;101155.20;106171;1264;97987;-80
2023/08/22 06:40:24;;;;;;;7.60;3.50;;;;;;;20.04;87.84;101150.58;106404;1258;98484;-80
2023/08/22 06:43:10;;;;;;;13.90;3.70;;;;;;;20.09;87.92;101147.81;106399;1261;102654;-80
2023/08/22 06:45:57;;;;;;;7.90;3.60;;;;;;;20.18;88.05;101152.34;106409;1261;100329;-80
2023/08/22 06:48:43;;;;;;;7.00;3.50;;;;;;;20.27;87.76;101157.42;106176;1260;98039;-80
2023/08/22 06:51:30;;;;;;;8.70;3.00;;;;;;;20.38;87.61;101159.91;106242;1262;97878;-80
2023/08/22 06:54:15;;;;;;;6.50;2.70;;;;;;;20.47;86.86;101158.81;106303;1259;98045;-80
2023/08/22 06:57:01;;;;;;;7.90;3.20;;;;;;;20.56;86.73;101155.09;106330;1262;101455;-80
2023/08/22 06:59:46;;;;;;;6.60;3.20;;;;;;;20.61;85.39;101153.31;106396;1258;99195;-82
2023/08/22 07:02:32;;;;;;;9.90;2.80;;;;;;;20.65;85.02;101148.59;106275;1261;97953;-81
2023/08/22 07:05:18;;;;;;;8.90;3.20;;;;;;;20.71;85.95;101145.08;106033;1258;98065;-80
2023/08/22 07:08:03;;;;;;;9.10;3.20;;;;;;;20.82;86.30;101149.00;106082;1259;97851;-78
2023/08/22 07:10:49;;;;;;;5.50;2.70;;;;;;;20.95;85.83;101152.39;105419;1262;101369;-79
2023/08/22 07:13:36;;;;;;;8.70;3.10;;;;;;;21.04;85.60;101151.88;106017;1263;99127;-81
2023/08/22 07:16:21;;;;;;;6.20;2.40;;;;;;;21.11;84.93;101149.86;105888;1263;97976;-79
2023/08/22 07:19:07;;;;;;;8.60;2.60;;;;;;;21.21;84.82;101149.84;106159;1258;99150;-80
2023/08/22 07:21:53;;;;;;;8.10;2.60;;;;;;;21.31;84.43;101145.79;106147;1264;97991;-80
2023/08/22 07:24:38;;;;;;;6.30;2.20;;;;;;;21.44;84.39;101134.84;105612;1261;101348;-80
2023/08/22 07:27:24;;;;;;;7.40;2.40;;;;;;;21.54;83.92;101136.49;106124;1261;99163;-79
2023/08/22 07:30:10;;;;;;;5.90;2.90;;;;;;;21.62;82.66;101138.33;105689;1257;99536;-80
2023/08/22 07:32:55;;;;;;;4.50;2.40;;;;;;;21.69;82.45;101133.48;106285;1261;98121;-80
2023/08/22 07:35:41;;;;;;;4.90;1.70;;;;;;;21.75;80.68;101135.23;106439;1260;98616;-80
2023/08/22 07:38:29;;;;;;;4.10;1.70;;;;;;;21.78;79.10;101133.81;106379;1259;101390;-80
2023/08/22 07:41:14;;;;;;;7.00;1.70;;;;;;;21.83;78.38;101133.86;105923;1258;99298;-79
2023/08/22 07:43:59;;;;;;;6.60;1.70;;;;;;;21.85;77.57;101133.91;106504;1258;97934;-81
2023/08/22 07:46:45;;;;;;;7.00;1.70;;;;;;;21.85;76.80;101133.48;106331;1262;98132;-82
2023/08/22 07:49:31;;;;;;;6.10;1.40;;;;;;;21.92;76.57;101135.77;106255;1258;98033;-80
2023/08/22 07:52:16;;;;;;;5.90;1.20;;;;;;;21.99;74.66;101133.04;106150;1262;101340;-79
2023/08/22 07:55:01;;;;;;;3.00;1.20;;;;;;;22.02;73.71;101129.60;106347;1258;99248;-80
2023/08/22 07:57:47;;;;;;;5.90;1.10;;;;;;;22.07;72.50;101134.80;106314;1261;97982;-85
2023/08/22 08:00:33;;;;;;;3.10;1.30;;;;;;;22.12;71.09;101134.95;105960;1257;97895;-81
2023/08/22 08:03:18;;;;;;;4.10;1.00;;;;;;;22.15;70.29;101132.73;106316;1258;97877;-79
2023/08/22 08:06:04;;;;;;;3.00;1.40;;;;;;;22.18;69.68;101133.00;106576;1258;101404;-80
2023/08/22 08:08:49;;;;;;;7.00;1.70;;;;;;;22.20;69.85;101129.88;106390;1258;99818;-81
2023/08/22 08:11:35;;;;;;;2.50;0.80;;;;;;;22.24;70.43;101125.85;106206;1259;98468;-80
2023/08/22 08:14:20;;;;;;;4.10;1.00;;;;;;;22.29;68.92;101130.02;106118;1263;97901;-80
2023/08/22 08:17:06;;;;;;;5.50;1.10;;;;;;;22.35;68.67;101131.36;106237;1261;97878;-80
2023/08/22 08:19:52;;;;;;;3.50;0.80;;;;;;;22.41;67.60;101129.95;106414;1259;101479;-81
2023/08/22 08:22:37;;;;;;;2.10;1.00;;;;;;;22.43;67.87;101133.10;106210;1258;99127;-79
2023/08/22 08:25:23;;;;;;;3.70;1.10;;;;;;;22.50;67.46;101140.45;106262;1261;98885;-80
2023/08/22 08:28:09;;;;;;;5.60;1.00;;;;;;;22.55;65.71;101142.23;106158;1258;98112;-81
2023/08/22 08:30:54;;;;;;;1.50;1.00;;;;;;;22.57;65.33;101140.30;106138;1258;97946;-81
2023/08/22 08:33:40;;;;;;;1.80;1.10;;;;;;;22.62;64.58;101138.80;106238;1261;101377;-80
2023/08/22 08:36:25;;;;;;;4.30;1.60;;;;;;;22.67;64.42;101134.95;106185;1261;99954;-80
2023/08/22 08:39:11;;;;;;;2.80;1.00;;;;;;;22.74;65.45;101135.14;106215;1258;97982;-81
2023/08/22 08:42:14;;;;;;;3.50;0.90;;;;;;;22.83;65.48;101135.91;106287;1258;97984;-81
2023/08/22 08:45:00;;;;;;;4.20;0.80;;;;;;;22.90;64.15;101136.42;106143;1258;98714;-81
2023/08/22 08:47:46;;;;;;;2.20;0.80;;;;;;;22.92;62.43;101135.59;106116;1258;101974;-78
2023/08/22 08:50:32;;;;;;;2.10;1.00;;;;;;;22.94;61.53;101133.86;106127;1258;99138;-79
2023/08/22 08:53:19;;;;;;;7.70;1.20;;;;;;;22.96;61.11;101129.14;105576;1263;99564;-79
2023/08/22 08:56:09;;;;;;;2.50;0.70;;;;;;;22.99;60.80;101123.00;105699;1262;99231;-80
2023/08/22 08:58:55;;;;;;;2.00;0.90;;;;;;;23.02;60.45;101125.49;106191;1263;98623;-80
2023/08/22 09:01:45;;;;;;;3.20;1.10;;;;;;;23.08;61.22;101121.36;106397;1263;101346;-80
2023/08/22 09:04:31;;;;;;;2.90;0.80;;;;;;;23.15;60.12;101119.23;106475;1258;99193;-80
2023/08/22 09:07:17;;;;;;;1.70;0.60;;;;;;;23.16;59.18;101118.38;105786;1265;99562;-80
2023/08/22 09:10:04;;;;;;;4.00;0.90;;;;;;;23.19;58.92;101119.13;106284;1262;97973;-80
2023/08/22 09:12:50;;;;;;;3.20;0.70;;;;;;;23.23;58.53;101120.42;106249;1260;98394;-80
2023/08/22 09:15:35;;;;;;;2.00;0.80;;;;;;;23.28;58.30;101116.05;106205;1261;101388;-81
2023/08/22 09:18:20;;;;;;;2.20;0.70;;;;;;;23.31;57.77;101117.39;106398;1262;99163;-80
2023/08/22 09:21:07;;;;;;;1.00;0.90;;;;;;;23.34;57.75;101119.46;106319;1258;98417;-81
2023/08/22 09:23:52;;;;;;;6.10;0.80;;;;;;;23.41;57.92;101108.66;106369;1261;95815;-81
2023/08/22 09:26:46;;;;;;;2.20;1.20;;;;;;;23.49;57.86;101101.57;106454;1261;97953;-81
2023/08/22 09:29:34;;;;;;;3.30;0.80;;;;;;;23.54;57.22;101099.27;106590;1261;102112;-81
2023/08/22 09:32:23;;;;;;;4.10;0.90;;;;;;;23.60;57.23;101100.84;106182;1261;99173;-81
2023/08/22 09:35:08;;;;;;;2.60;0.80;;;;;;;23.65;57.12;101103.05;106130;1258;98436;-80
2023/08/22 09:37:55;;;;;;;2.80;0.90;;;;;;;23.68;56.17;101101.25;106377;1260;99211;-80
2023/08/22 09:40:52;;;;;;;2.20;1.00;;;;;;;23.68;55.88;101101.52;106346;1263;98538;-80
2023/08/22 09:43:39;;;;;;;1.70;0.60;;;;;;;23.72;55.82;101103.26;106310;1257;101336;-79
2023/08/22 09:46:25;;;;;;;2.20;0.90;;;;;;;23.72;54.83;101096.41;106293;1261;99139;-81
2023/08/22 09:49:14;;;;;;;2.60;0.90;;;;;;;23.70;54.69;101087.81;106448;1263;98747;-80
2023/08/22 09:52:01;;;;;;;5.60;0.90;;;;;;;23.72;54.85;101083.45;106292;1261;97964;-81
2023/08/22 09:54:47;;;;;;;2.50;0.90;;;;;;;23.77;55.67;101082.95;106263;1258;98737;-80
2023/08/22 09:57:33;;;;;;;3.20;1.10;;;;;;;23.85;55.80;101082.73;106370;1259;102135;-80
2023/08/22 10:00:19;;;;;;;3.80;0.90;;;;;;;23.89;54.90;101080.46;106325;1260;100709;-80
2023/08/22 10:03:06;;;;;;;1.80;0.90;;;;;;;23.92;55.53;101079.87;106260;1263;98466;-80
2023/08/22 10:05:51;;;;;;;2.50;0.90;;;;;;;23.95;55.67;101085.98;106508;1260;97934;-80
2023/08/22 10:08:37;;;;;;;3.30;1.10;;;;;;;23.95;54.69;101083.08;106484;1262;98446;-79
2023/08/22 10:11:27;;;;;;;2.30;0.90;;;;;;;23.98;54.53;101075.20;106332;1258;101631;-80
2023/08/22 10:14:28;;;;;;;1.50;0.80;;;;;;;24.00;55.08;101074.50;106803;1263;99300;-79
2023/08/22 10:17:15;;;;;;;3.80;0.80;;;;;;;24.03;54.55;101074.61;106570;1259;99141;-80
2023/08/22 10:20:07;;;;;;;3.70;1.00;;;;;;;24.09;54.27;101071.60;105914;1258;97954;-80
2023/08/22 10:22:52;;;;;;;2.50;0.70;;;;;;;24.17;54.50;101069.51;105867;1258;97965;-80
2023/08/22 10:25:48;;;;;;;5.70;0.90;;;;;;;24.27;55.16;101064.86;105896;1263;101349;-79
2023/08/22 10:28:41;;;;;;;2.50;0.80;;;;;;;24.38;54.94;101058.19;106384;1264;99151;-80
2023/08/22 10:31:27;;;;;;;3.20;1.20;;;;;;;24.44;53.71;101053.73;106703;1263;98430;-80
2023/08/22 10:34:12;;;;;;;2.10;0.90;;;;;;;24.44;53.57;101057.66;106496;1263;98017;-80
2023/08/22 10:36:59;;;;;;;2.90;1.00;;;;;;;24.47;53.21;101057.61;106661;1264;97978;-80
2023/08/22 10:39:46;;;;;;;4.40;1.30;;;;;;;24.51;53.53;101051.13;106341;1259;102172;-81
2023/08/22 10:42:32;;;;;;;1.60;0.80;;;;;;;24.51;53.09;101045.37;106280;1271;100530;-80
2023/08/22 10:45:19;;;;;;;2.10;0.70;;;;;;;24.45;53.35;101046.10;105651;1267;97878;-80
2023/08/22 10:48:07;;;;;;;4.80;1.10;;;;;;;24.41;53.86;101044.28;106354;1263;97997;-80
2023/08/22 10:50:52;;;;;;;3.20;1.10;;;;;;;24.40;53.66;101049.70;106603;1261;98413;-80
2023/08/22 10:53:45;;;;;;;2.00;0.90;;;;;;;24.37;53.70;101049.46;106562;1263;101480;-80
2023/08/22 10:56:31;;;;;;;2.10;1.10;;;;;;;24.32;52.86;101050.48;106526;1263;100215;-80
2023/08/22 10:59:19;;;;;;;2.90;1.20;;;;;;;24.28;53.87;101047.50;106462;1263;97978;-79
2023/08/22 11:02:05;;;;;;;2.30;1.10;;;;;;;24.37;54.70;101045.86;106466;1262;97890;-79
2023/08/22 11:04:52;;;;;;;2.90;0.90;;;;;;;24.43;53.28;101044.40;105748;1263;98586;-83
2023/08/22 11:07:42;;;;;;;3.30;0.90;;;;;;;24.45;53.33;101041.95;105814;1261;101442;-78
2023/08/22 11:10:28;;;;;;;5.20;1.30;;;;;;;24.48;52.78;101041.69;105763;1257;100359;-80
2023/08/22 11:13:13;;;;;;;4.60;1.50;;;;;;;24.49;52.22;101043.79;105661;1260;97888;-79
2023/08/22 11:15:59;;;;;;;5.40;1.60;;;;;;;24.60;53.07;101042.39;105648;1262;97888;-80
2023/08/22 11:18:47;;;;;;;2.70;1.20;;;;;;;24.69;52.64;101041.98;105590;1261;98570;-79
2023/08/22 11:21:32;;;;;;;3.90;1.20;;;;;;;24.78;53.00;101039.06;105826;1265;101439;-79
2023/08/22 11:24:18;;;;;;;3.20;0.80;;;;;;;24.83;52.65;101040.96;105732;1264;99076;-78
2023/08/22 11:27:05;;;;;;;2.00;0.80;;;;;;;24.88;52.26;101035.55;105730;1257;97898;-79
2023/08/22 11:29:52;;;;;;;3.80;1.20;;;;;;;24.97;52.08;101037.48;106461;1263;97939;-81
2023/08/22 11:32:40;;;;;;;4.10;1.00;;;;;;;25.08;52.84;101039.21;106252;1261;98451;-80
2023/08/22 11:35:25;;;;;;;6.90;1.50;;;;;;;25.18;52.22;101040.59;105393;1268;101339;-78
2023/08/22 11:38:11;;;;;;;1.90;1.00;;;;;;;25.23;51.72;101034.73;105914;1259;100445;-80
2023/08/22 11:40:57;;;;;;;1.80;1.40;;;;;;;25.30;51.39;101034.46;105965;1264;97968;-79
2023/08/22 11:43:50;;;;;;;3.90;1.10;;;;;;;25.37;51.19;101034.73;106189;1263;97886;-79
2023/08/22 11:46:40;;;;;;;3.70;1.30;;;;;;;25.39;50.78;101035.01;107176;1261;96720;-80
2023/08/22 11:50:02;;;;;;;3.10;1.30;;;;;;;25.31;49.82;101038.36;106505;1263;101456;-80
2023/08/22 11:52:51;;;;;;;3.60;0.90;;;;;;;25.24;49.56;101041.92;106542;1263;99232;-80
2023/08/22 11:55:40;;;;;;;3.70;1.30;;;;;;;25.20;50.24;101044.72;106512;1258;97975;-80
2023/08/22 11:58:26;;;;;;;4.00;1.30;;;;;;;25.23;50.14;101041.48;106503;1262;97864;-79
2023/08/22 12:01:12;;;;;;;2.70;1.10;;;;;;;25.22;50.38;101039.50;105941;1263;98057;-77
2023/08/22 12:03:57;;;;;;;3.30;1.30;;;;;;;25.17;50.03;101045.10;105335;1259;101908;-78
2023/08/22 12:06:58;;;;;;;2.90;1.00;;;;;;;25.10;49.32;101045.75;105791;1258;99938;-79
2023/08/22 12:10:00;;;;;;;3.60;1.10;;;;;;;25.05;49.91;101044.36;106372;1263;98633;-79
2023/08/22 12:12:45;;;;;;;3.50;1.30;;;;;;;25.11;49.91;101038.11;106447;1259;98035;-79
2023/08/22 12:15:31;;;;;;;3.50;1.20;;;;;;;25.23;50.45;101032.30;106084;1264;97885;-79
2023/08/22 12:18:17;;;;;;;2.40;1.10;;;;;;;25.40;49.88;101030.05;106062;1268;102646;-79
2023/08/22 12:21:03;;;;;;;2.80;0.80;;;;;;;25.53;50.06;101027.86;106021;1262;100084;-79
2023/08/22 12:23:49;;;;;;;2.10;0.90;;;;;;;25.63;49.45;101020.83;105728;1263;98441;-78
2023/08/22 12:26:35;;;;;;;2.40;1.30;;;;;;;25.71;48.78;101020.33;105923;1257;98630;-79
2023/08/22 12:29:20;;;;;;;2.60;1.40;;;;;;;25.77;48.98;101023.85;106048;1261;98416;-79
2023/08/22 12:32:07;;;;;;;5.30;2.20;;;;;;;25.81;48.36;101022.40;105974;1259;102459;-79
2023/08/22 12:34:52;;;;;;;3.50;1.10;;;;;;;25.86;49.03;101020.80;105970;1263;100442;-79
2023/08/22 12:37:39;;;;;;;2.00;0.90;;;;;;;25.95;48.93;101021.99;105892;1262;99124;-79
2023/08/22 12:40:25;;;;;;;3.90;1.20;;;;;;;25.94;47.85;101020.61;106038;1259;97956;-79
2023/08/22 12:43:10;;;;;;;3.00;1.30;;;;;;;25.94;47.60;101017.22;105902;1260;98375;-79
2023/08/22 12:45:56;;;;;;;1.90;1.10;;;;;;;25.98;48.10;101014.18;105692;1262;150146;-79